Time;durP1;ratioP1;P1;durP2;ratioP2;P2;SDS_P1;SDS_P2;PMS_P1;PMS_P2;Temp;Humidity;BMP_temperature;BMP_pressure;BME280_temperature;BME280_humidity;BME280_pressure;Samples;Min_cycle;Max_cycle;Signal;HPM_P1;HPM_P2
2023/01/23 00:00:13;;;;;;;43.10;23.40;;;;;;;10.34;100.00;100219.50;5072140;28;20640;-54
2023/01/23 00:02:40;;;;;;;38.90;23.97;;;;;;;10.32;100.00;100234.88;5071745;28;20199;-54
2023/01/23 00:05:07;;;;;;;42.60;24.80;;;;;;;10.26;100.00;100231.25;5072013;28;20196;-54
2023/01/23 00:07:36;;;;;;;34.43;21.83;;;;;;;10.21;100.00;100231.13;5072146;28;20203;-54
2023/01/23 00:10:03;;;;;;;37.40;23.67;;;;;;;10.15;100.00;100233.50;5071978;28;20192;-54
2023/01/23 00:12:29;;;;;;;36.20;24.60;;;;;;;10.23;100.00;100234.59;5071975;28;20722;-55
2023/01/23 00:14:56;;;;;;;40.47;23.47;;;;;;;10.23;100.00;100226.00;5072048;28;20644;-54
2023/01/23 00:17:26;;;;;;;45.23;24.50;;;;;;;10.30;100.00;100233.94;5072165;28;20187;-54
2023/01/23 00:19:53;;;;;;;34.03;23.10;;;;;;;10.28;100.00;100217.63;5072045;28;20241;-54
2023/01/23 00:22:20;;;;;;;38.10;22.63;;;;;;;10.29;100.00;100226.19;5072336;28;20198;-54
2023/01/23 00:24:48;;;;;;;34.97;23.47;;;;;;;10.24;100.00;100241.47;5072056;28;20618;-54
2023/01/23 00:27:15;;;;;;;31.00;23.23;;;;;;;10.23;100.00;100236.28;5071987;28;20187;-54
2023/01/23 00:29:41;;;;;;;39.43;25.30;;;;;;;10.25;100.00;100239.75;5071827;28;20203;-54
2023/01/23 00:32:08;;;;;;;34.97;23.70;;;;;;;10.29;100.00;100237.34;5066795;28;20202;-54
2023/01/23 00:34:35;;;;;;;40.83;25.00;;;;;;;10.30;100.00;100230.53;5062394;28;20618;-55
2023/01/23 00:37:02;;;;;;;41.43;24.30;;;;;;;10.30;100.00;100239.06;5059599;28;20637;-59
2023/01/23 00:39:29;;;;;;;39.27;25.07;;;;;;;10.15;100.00;100227.50;5055149;28;20200;-54
2023/01/23 00:41:57;;;;;;;39.13;25.13;;;;;;;10.25;100.00;100237.19;5051778;28;20228;-54
2023/01/23 00:44:24;;;;;;;37.90;24.77;;;;;;;10.16;100.00;100237.81;5053526;28;20191;-54
2023/01/23 00:46:50;;;;;;;42.37;25.87;;;;;;;10.20;100.00;100236.19;5064957;28;20188;-54
2023/01/23 00:49:17;;;;;;;41.10;25.97;;;;;;;10.22;100.00;100239.69;5065367;28;20188;-54
2023/01/23 00:51:44;;;;;;;48.60;27.70;;;;;;;10.28;100.00;100239.84;5071868;28;20241;-54
2023/01/23 00:54:13;;;;;;;41.53;26.47;;;;;;;10.26;100.00;100247.53;5060401;28;20215;-54
2023/01/23 00:56:39;;;;;;;41.87;25.33;;;;;;;10.36;100.00;100258.94;5060018;28;20223;-54
2023/01/23 00:59:08;;;;;;;47.60;28.77;;;;;;;10.37;100.00;100266.69;5057852;28;20691;-54
2023/01/23 01:01:35;;;;;;;41.83;26.20;;;;;;;10.42;100.00;100264.25;5067816;28;20200;-54
2023/01/23 01:04:02;;;;;;;42.03;25.57;;;;;;;10.33;100.00;100256.28;5071297;28;20666;-55
2023/01/23 01:06:29;;;;;;;47.07;26.23;;;;;;;10.38;100.00;100255.56;5071726;28;20245;-54
2023/01/23 01:08:56;;;;;;;42.97;24.20;;;;;;;10.31;100.00;100255.34;5071518;28;20249;-54
2023/01/23 01:11:22;;;;;;;38.63;23.03;;;;;;;10.22;100.00;100258.53;5071508;28;20183;-54
2023/01/23 01:13:49;;;;;;;40.30;23.33;;;;;;;10.25;100.00;100260.31;5071248;28;20219;-54
2023/01/23 01:16:18;;;;;;;36.20;23.67;;;;;;;10.23;100.00;100262.84;5071458;28;20194;-54
2023/01/23 01:18:44;;;;;;;42.23;24.97;;;;;;;10.17;100.00;100266.91;5071625;28;20192;-54
2023/01/23 01:21:14;;;;;;;37.87;23.13;;;;;;;10.26;100.00;100274.91;5071222;28;20184;-54
2023/01/23 01:23:42;;;;;;;46.67;25.03;;;;;;;10.29;100.00;100269.84;5071732;28;20211;-54
2023/01/23 01:26:10;;;;;;;36.77;22.53;;;;;;;10.25;100.00;100279.16;5069668;28;20183;-54
2023/01/23 01:28:39;;;;;;;45.95;27.80;;;;;;;10.15;100.00;100271.13;5071218;28;20438;-54
2023/01/23 01:31:08;;;;;;;46.57;24.93;;;;;;;10.21;100.00;100281.59;5074998;28;20246;-54
2023/01/23 01:33:37;;;;;;;39.93;24.17;;;;;;;10.24;100.00;100286.84;5075146;28;20272;-54
2023/01/23 01:36:08;;;;;;;42.37;25.87;;;;;;;10.29;100.00;100275.00;5075030;28;20196;-53
2023/01/23 01:38:35;;;;;;;37.27;24.33;;;;;;;10.30;100.00;100282.72;5075023;28;20195;-53
2023/01/23 01:41:01;;;;;;;36.77;23.97;;;;;;;10.32;100.00;100277.66;5074992;28;20277;-54
2023/01/23 01:43:29;;;;;;;39.13;23.87;;;;;;;10.31;100.00;100281.91;5074913;28;20202;-54
2023/01/23 01:46:16;;;;;;;39.03;23.80;;;;;;;10.27;100.00;100280.09;5074715;28;20203;-54
2023/01/23 01:48:50;;;;;;;36.47;22.77;;;;;;;10.25;100.00;100284.31;5074755;28;20191;-53
2023/01/23 01:51:25;;;;;;;35.03;23.20;;;;;;;10.21;100.00;100281.59;5075036;28;20188;-53
2023/01/23 01:53:59;;;;;;;35.33;23.10;;;;;;;10.06;100.00;100267.44;5074972;28;20222;-54
2023/01/23 01:56:27;;;;;;;41.00;23.50;;;;;;;10.27;100.00;100272.41;5075497;28;20195;-53
2023/01/23 01:58:54;;;;;;;36.37;22.40;;;;;;;10.26;100.00;100278.34;5074323;28;20244;-54
2023/01/23 02:01:21;;;;;;;39.20;23.63;;;;;;;10.21;100.00;100276.47;5074311;28;20195;-54
2023/01/23 02:03:51;;;;;;;38.87;23.53;;;;;;;10.21;100.00;100281.59;5074587;28;20203;-54
2023/01/23 02:06:18;;;;;;;37.10;23.77;;;;;;;10.24;100.00;100281.69;5074350;28;20656;-54
2023/01/23 02:08:53;;;;;;;42.27;23.40;;;;;;;10.16;100.00;100290.88;5074731;28;20192;-53
2023/01/23 02:11:20;;;;;;;42.30;24.47;;;;;;;10.18;100.00;100284.94;5074350;28;20187;-54
2023/01/23 02:13:47;;;;;;;38.90;25.90;;;;;;;10.19;100.00;100290.97;5074342;28;20219;-54
2023/01/23 02:16:18;;;;;;;37.00;23.13;;;;;;;10.18;100.00;100289.22;5074400;28;20713;-54
2023/01/23 02:18:49;;;;;;;39.40;25.33;;;;;;;10.21;100.00;100273.91;5074673;28;20733;-54
2023/01/23 02:21:23;;;;;;;37.93;25.00;;;;;;;10.07;100.00;100258.03;5074380;28;20187;-53
2023/01/23 02:24:07;;;;;;;37.47;24.03;;;;;;;10.09;100.00;100267.53;5074384;28;20646;-54
2023/01/23 02:26:39;;;;;;;39.97;23.40;;;;;;;10.13;100.00;100278.81;5074508;28;20187;-54
2023/01/23 02:29:07;;;;;;;39.50;23.87;;;;;;;10.20;100.00;100280.72;5074413;28;20187;-54
2023/01/23 02:31:34;;;;;;;37.53;22.40;;;;;;;10.15;100.00;100281.41;5074139;28;20194;-53
2023/01/23 02:34:01;;;;;;;39.40;24.03;;;;;;;10.20;100.00;100274.72;5074308;28;20306;-54
2023/01/23 02:36:31;;;;;;;33.23;22.80;;;;;;;10.21;100.00;100291.88;5074192;28;20571;-54
2023/01/23 02:39:03;;;;;;;36.37;21.90;;;;;;;10.22;100.00;100288.50;5071760;28;20206;-54
2023/01/23 02:41:32;;;;;;;36.70;21.80;;;;;;;10.20;100.00;100292.69;5072733;28;20269;-54
2023/01/23 02:44:04;;;;;;;32.23;21.67;;;;;;;10.14;100.00;100272.81;5073528;28;20203;-54
2023/01/23 02:46:31;;;;;;;35.33;21.80;;;;;;;10.14;100.00;100277.09;5074263;28;20192;-54
2023/01/23 02:48:58;;;;;;;35.30;20.50;;;;;;;10.03;100.00;100285.31;5073688;28;20183;-54
2023/01/23 02:51:24;;;;;;;36.90;20.53;;;;;;;10.12;100.00;100291.56;5073671;28;20199;-54
2023/01/23 02:53:51;;;;;;;30.67;20.03;;;;;;;10.19;100.00;100293.53;5073587;28;20714;-54
2023/01/23 02:56:18;;;;;;;31.07;20.27;;;;;;;10.12;100.00;100296.69;5073748;28;20191;-55
2023/01/23 03:01:34;;;;;;;32.87;21.27;;;;;;;10.11;100.00;100305.22;5073784;28;20194;-54
2023/01/23 03:04:03;;;;;;;34.90;21.40;;;;;;;10.09;100.00;100306.06;5073757;28;20192;-54
2023/01/23 03:06:35;;;;;;;31.17;20.83;;;;;;;9.97;100.00;100289.41;5073490;28;20571;-54
2023/01/23 03:09:04;;;;;;;35.37;21.90;;;;;;;10.03;100.00;100295.59;5072773;28;20195;-54
2023/01/23 03:11:32;;;;;;;38.83;21.67;;;;;;;10.11;100.00;100289.84;5073620;28;20212;-54
2023/01/23 03:13:58;;;;;;;35.37;22.40;;;;;;;10.04;100.00;100306.72;5073090;28;20215;-54
2023/01/23 03:16:25;;;;;;;44.53;22.20;;;;;;;10.15;100.00;100307.97;5073631;28;20210;-54
2023/01/23 03:18:54;;;;;;;33.23;23.27;;;;;;;10.15;100.00;100301.94;5073002;28;20203;-54
2023/01/23 03:21:21;;;;;;;31.67;20.73;;;;;;;10.16;100.00;100306.28;5073043;28;20249;-54
2023/01/23 03:23:48;;;;;;;36.23;22.20;;;;;;;10.16;100.00;100304.59;5072995;28;20681;-54
2023/01/23 03:26:16;;;;;;;38.63;21.00;;;;;;;10.23;100.00;100313.31;5072813;28;20188;-54
2023/01/23 03:31:28;;;;;;;41.40;19.90;;;;;;;10.14;100.00;100303.66;5073143;28;20237;-54
2023/01/23 03:33:56;;;;;;;36.23;19.57;;;;;;;10.08;100.00;100300.84;5073042;28;20659;-54
2023/01/23 03:36:22;;;;;;;34.53;19.63;;;;;;;10.12;100.00;100307.84;5072799;28;20191;-54
2023/01/23 03:41:33;;;;;;;34.17;21.00;;;;;;;10.18;100.00;100307.19;5051373;28;20293;-54
2023/01/23 03:43:59;;;;;;;38.57;24.37;;;;;;;10.18;100.00;100305.50;5072880;28;20195;-54
2023/01/23 03:46:26;;;;;;;44.50;23.20;;;;;;;10.12;100.00;100310.41;5072684;28;20199;-54
2023/01/23 03:48:53;;;;;;;49.33;24.17;;;;;;;10.04;100.00;100311.88;5072521;28;20187;-54
2023/01/23 03:51:21;;;;;;;34.27;22.40;;;;;;;10.08;100.00;100308.53;5072544;28;20199;-54
2023/01/23 03:53:48;;;;;;;35.77;22.57;;;;;;;10.07;100.00;100312.84;5072239;28;20212;-55
2023/01/23 03:56:15;;;;;;;44.80;25.53;;;;;;;10.00;100.00;100318.59;5072038;28;20425;-54
2023/01/23 03:58:42;;;;;;;37.90;23.53;;;;;;;9.99;100.00;100319.44;5072744;28;20442;-55
2023/01/23 04:01:09;;;;;;;33.90;24.80;;;;;;;9.92;100.00;100314.91;5072571;28;20214;-55
2023/01/23 04:03:36;;;;;;;37.00;23.43;;;;;;;9.84;100.00;100318.06;5072989;28;20195;-53
2023/01/23 04:06:03;;;;;;;40.80;24.93;;;;;;;9.89;100.00;100322.50;5072519;28;20188;-55
2023/01/23 04:08:31;;;;;;;38.10;23.97;;;;;;;9.86;100.00;100316.44;5071855;28;20195;-53
2023/01/23 04:11:03;;;;;;;38.23;24.43;;;;;;;9.81;100.00;100321.41;5072300;28;20198;-53
2023/01/23 04:13:30;;;;;;;40.30;24.37;;;;;;;9.78;100.00;100326.44;5072115;28;20191;-53
2023/01/23 04:15:56;;;;;;;44.63;23.93;;;;;;;9.81;100.00;100330.78;5064811;28;20219;-53
2023/01/23 04:18:23;;;;;;;40.43;23.80;;;;;;;9.80;100.00;100337.63;5052404;28;20196;-53
2023/01/23 04:20:50;;;;;;;44.40;24.97;;;;;;;9.76;100.00;100343.47;5068848;28;20625;-54
2023/01/23 04:23:17;;;;;;;43.30;24.60;;;;;;;9.62;100.00;100336.13;5072388;28;20191;-53
2023/01/23 04:25:45;;;;;;;38.07;25.03;;;;;;;9.60;100.00;100336.09;5072124;28;20567;-53
2023/01/23 04:28:12;;;;;;;39.53;23.47;;;;;;;9.68;100.00;100347.47;5072210;28;20194;-55
2023/01/23 04:30:39;;;;;;;43.70;24.30;;;;;;;9.68;100.00;100344.03;5071962;28;20658;-54
2023/01/23 04:33:06;;;;;;;43.20;24.37;;;;;;;9.70;100.00;100348.41;5072812;28;20191;-53
2023/01/23 04:35:33;;;;;;;37.03;21.47;;;;;;;9.62;100.00;100359.22;5072585;28;20223;-54
2023/01/23 04:38:00;;;;;;;43.40;23.70;;;;;;;9.44;100.00;100337.28;5062013;28;20200;-54
2023/01/23 04:40:27;;;;;;;39.57;23.93;;;;;;;9.63;100.00;100353.28;5052019;28;20676;-54
2023/01/23 04:42:55;;;;;;;41.57;22.57;;;;;;;9.64;100.00;100355.03;5051967;28;20660;-54
2023/01/23 04:45:22;;;;;;;39.53;23.30;;;;;;;9.58;100.00;100345.44;5062299;28;20261;-54
2023/01/23 04:47:48;;;;;;;40.15;27.58;;;;;;;9.59;100.00;100347.16;5071348;28;20434;-54
2023/01/23 04:50:16;;;;;;;40.93;23.50;;;;;;;9.67;100.00;100353.41;5072104;28;20614;-54
2023/01/23 04:52:43;;;;;;;39.30;22.90;;;;;;;9.66;100.00;100356.84;5072235;28;20215;-53
2023/01/23 04:55:10;;;;;;;36.40;23.57;;;;;;;9.58;100.00;100365.97;5072102;28;20230;-54
2023/01/23 04:57:37;;;;;;;36.60;21.77;;;;;;;9.54;100.00;100360.66;5071834;28;20278;-54
2023/01/23 05:00:07;;;;;;;37.10;21.53;;;;;;;9.55;100.00;100371.00;5072101;28;20187;-54
2023/01/23 05:02:33;;;;;;;32.77;19.93;;;;;;;9.51;100.00;100374.25;5071103;28;20191;-54
2023/01/23 05:05:00;;;;;;;41.47;22.13;;;;;;;9.56;100.00;100372.72;5071585;28;20205;-54
2023/01/23 05:07:27;;;;;;;33.83;19.80;;;;;;;9.49;100.00;100383.59;5071732;28;20655;-54
2023/01/23 05:09:54;;;;;;;34.13;21.30;;;;;;;9.53;100.00;100382.03;5071689;28;20192;-54
2023/01/23 05:12:20;;;;;;;41.40;21.47;;;;;;;9.42;100.00;100385.06;5071596;28;20195;-54
2023/01/23 05:14:47;;;;;;;37.33;20.73;;;;;;;9.43;100.00;100388.50;5071375;28;20218;-54
2023/01/23 05:17:15;;;;;;;36.43;20.47;;;;;;;9.55;100.00;100393.19;5071998;28;20187;-54
2023/01/23 05:19:42;;;;;;;32.10;19.60;;;;;;;9.49;100.00;100393.84;5071747;28;20188;-54
2023/01/23 05:22:09;;;;;;;33.17;20.03;;;;;;;9.49;100.00;100397.31;5071476;28;20790;-54
2023/01/23 05:24:36;;;;;;;37.10;21.50;;;;;;;9.34;100.00;100404.44;5071607;28;20730;-54
2023/01/23 05:27:02;;;;;;;35.80;20.70;;;;;;;9.33;100.00;100410.41;5071613;28;20249;-54
2023/01/23 05:29:29;;;;;;;38.10;22.30;;;;;;;9.35;100.00;100410.44;5071567;28;20264;-54
2023/01/23 05:31:56;;;;;;;34.63;22.00;;;;;;;9.41;100.00;100418.38;5076265;28;20690;-54
2023/01/23 05:34:24;;;;;;;34.43;20.77;;;;;;;9.29;100.00;100411.09;5091754;28;20594;-54
2023/01/23 05:36:51;;;;;;;33.13;20.27;;;;;;;9.20;100.00;100397.94;5091626;28;20183;-54
2023/01/23 05:39:18;;;;;;;32.03;20.23;;;;;;;9.25;100.00;100413.50;5091784;28;20191;-54
2023/01/23 05:41:44;;;;;;;32.57;20.60;;;;;;;9.16;100.00;100416.63;5092227;28;20219;-54
2023/01/23 05:44:11;;;;;;;36.80;21.17;;;;;;;9.18;100.00;100414.09;5091474;28;20571;-55
2023/01/23 05:46:38;;;;;;;31.97;19.97;;;;;;;9.14;100.00;100419.94;5092367;28;20198;-54
2023/01/23 05:49:05;;;;;;;36.63;21.67;;;;;;;9.20;100.00;100423.59;5091688;28;20189;-54
2023/01/23 05:51:33;;;;;;;31.93;20.20;;;;;;;9.23;100.00;100418.56;5091417;28;20198;-54
2023/01/23 05:54:01;;;;;;;36.30;21.80;;;;;;;9.16;100.00;100414.06;5091476;28;20222;-54
2023/01/23 05:56:28;;;;;;;33.13;22.67;;;;;;;9.24;100.00;100422.88;5088154;28;20687;-54
2023/01/23 05:58:55;;;;;;;39.67;23.10;;;;;;;9.27;100.00;100428.13;5070963;28;20667;-53
2023/01/23 06:01:22;;;;;;;30.27;20.57;;;;;;;9.24;100.00;100432.28;5071556;28;20199;-53
2023/01/23 06:03:49;;;;;;;37.17;20.97;;;;;;;9.15;100.00;100430.25;5071492;28;20188;-54
2023/01/23 06:06:15;;;;;;;30.73;20.50;;;;;;;9.14;100.00;100432.75;5071331;28;20618;-54
2023/01/23 06:08:44;;;;;;;31.03;20.33;;;;;;;9.10;100.00;100438.56;5070904;28;20669;-55
2023/01/23 06:11:10;;;;;;;36.97;21.67;;;;;;;9.15;100.00;100444.75;5070400;28;20553;-54
2023/01/23 06:13:37;;;;;;;33.47;20.07;;;;;;;9.10;100.00;100449.72;5070427;28;20568;-54
2023/01/23 06:16:04;;;;;;;34.77;20.43;;;;;;;9.15;100.00;100455.88;5074098;28;20739;-54
2023/01/23 06:18:31;;;;;;;32.13;20.17;;;;;;;9.15;100.00;100450.75;5074047;28;20241;-54
2023/01/23 06:20:59;;;;;;;38.37;21.27;;;;;;;9.17;100.00;100451.69;5072685;28;20201;-54
2023/01/23 06:23:26;;;;;;;28.63;18.23;;;;;;;9.17;100.00;100456.84;5074168;28;20643;-54
2023/01/23 06:25:54;;;;;;;30.37;18.07;;;;;;;9.17;100.00;100455.94;5074211;28;20198;-54
2023/01/23 06:28:21;;;;;;;29.43;17.97;;;;;;;9.07;100.00;100466.66;5073966;28;20188;-54
2023/01/23 06:30:48;;;;;;;33.13;18.10;;;;;;;9.18;100.00;100473.94;5074238;28;20194;-59
2023/01/23 06:33:14;;;;;;;33.73;20.60;;;;;;;9.22;100.00;100469.81;5074006;28;20248;-54
2023/01/23 06:35:41;;;;;;;30.20;16.37;;;;;;;9.20;100.00;100468.88;5074198;28;20226;-54
2023/01/23 06:38:08;;;;;;;28.77;17.33;;;;;;;9.11;100.00;100466.84;5071876;28;20200;-55
2023/01/23 06:40:36;;;;;;;27.13;16.90;;;;;;;9.17;100.00;100479.91;5087976;28;20311;-55
2023/01/23 06:43:05;;;;;;;29.67;17.47;;;;;;;9.12;100.00;100483.13;5073854;28;20275;-54
2023/01/23 06:45:31;;;;;;;27.97;19.23;;;;;;;9.13;100.00;100485.72;5091836;28;20212;-54
2023/01/23 06:47:58;;;;;;;26.43;17.57;;;;;;;9.20;100.00;100486.84;5094334;28;20197;-54
2023/01/23 06:50:25;;;;;;;31.67;19.27;;;;;;;9.21;100.00;100501.38;5054029;28;20193;-53
2023/01/23 06:52:52;;;;;;;32.43;18.70;;;;;;;9.16;100.00;100496.09;5053798;28;20198;-54
2023/01/23 06:55:19;;;;;;;26.20;16.80;;;;;;;9.27;100.00;100505.06;5053538;28;20219;-55
2023/01/23 06:57:46;;;;;;;32.70;19.70;;;;;;;9.29;100.00;100499.97;5053715;28;20279;-54
2023/01/23 07:00:15;;;;;;;30.10;19.37;;;;;;;9.22;100.00;100505.72;5054068;28;20195;-55
2023/01/23 07:02:42;;;;;;;32.10;18.23;;;;;;;9.24;100.00;100499.81;5053490;28;20234;-54
2023/01/23 07:05:09;;;;;;;27.77;17.57;;;;;;;9.29;100.00;100505.09;5053754;28;20196;-53
2023/01/23 07:07:36;;;;;;;23.67;15.70;;;;;;;9.34;100.00;100508.72;5053223;28;20196;-53
2023/01/23 07:10:03;;;;;;;25.90;15.37;;;;;;;9.25;100.00;100495.56;5053045;28;20267;-54
2023/01/23 07:12:30;;;;;;;26.00;16.00;;;;;;;9.30;100.00;100501.75;5053327;28;20196;-56
2023/01/23 07:14:57;;;;;;;25.53;16.03;;;;;;;9.28;100.00;100505.94;5067794;28;20219;-54
2023/01/23 07:17:25;;;;;;;23.30;15.40;;;;;;;9.27;100.00;100502.50;5093294;28;20643;-53
2023/01/23 07:19:52;;;;;;;23.17;15.00;;;;;;;9.33;100.00;100507.00;5076000;28;20229;-59
2023/01/23 07:22:20;;;;;;;20.43;14.60;;;;;;;9.21;100.00;100504.84;5062605;28;20203;-53
2023/01/23 07:24:51;;;;;;;21.77;14.43;;;;;;;9.38;100.00;100510.59;5060446;28;20254;-54
2023/01/23 07:27:18;;;;;;;27.40;15.40;;;;;;;9.36;100.00;100504.53;5052951;28;20294;-54
2023/01/23 07:29:45;;;;;;;26.67;15.93;;;;;;;9.32;100.00;100505.22;5057520;28;20241;-54
2023/01/23 07:32:12;;;;;;;24.00;16.20;;;;;;;9.36;100.00;100496.84;5066897;28;20278;-54
2023/01/23 07:34:40;;;;;;;22.40;17.47;;;;;;;9.36;100.00;100505.41;5066853;28;20195;-55
2023/01/23 07:37:07;;;;;;;23.43;16.07;;;;;;;9.34;100.00;100507.03;5070353;28;20196;-54
2023/01/23 07:39:34;;;;;;;23.27;15.83;;;;;;;9.36;100.00;100504.53;5072302;28;20183;-53
2023/01/23 07:42:00;;;;;;;24.40;17.43;;;;;;;9.37;100.00;100504.59;5072732;28;20247;-54
2023/01/23 07:44:27;;;;;;;29.40;17.07;;;;;;;9.49;100.00;100506.72;5072997;28;20191;-52
2023/01/23 07:46:54;;;;;;;25.03;16.57;;;;;;;9.43;100.00;100506.50;5071226;28;20854;-53
2023/01/23 07:49:21;;;;;;;22.13;15.43;;;;;;;9.40;100.00;100511.50;5072535;28;20188;-52
2023/01/23 07:51:51;;;;;;;24.43;15.90;;;;;;;9.39;100.00;100497.81;5071818;28;20188;-55
2023/01/23 07:54:17;;;;;;;21.67;15.47;;;;;;;9.28;100.00;100485.44;5068994;28;20251;-56
2023/01/23 07:56:44;;;;;;;31.50;17.30;;;;;;;9.39;100.00;100492.69;5090736;28;20279;-56
2023/01/23 07:59:12;;;;;;;27.80;16.20;;;;;;;9.42;100.00;100503.06;5071406;28;20202;-55
2023/01/23 08:01:38;;;;;;;25.37;15.87;;;;;;;9.36;100.00;100515.69;5078375;28;20636;-54
2023/01/23 08:04:06;;;;;;;24.17;17.53;;;;;;;9.35;100.00;100498.53;5072753;28;20194;-54
2023/01/23 08:06:34;;;;;;;22.90;15.93;;;;;;;9.40;100.00;100502.13;5072980;28;20207;-54
2023/01/23 08:09:02;;;;;;;24.03;16.77;;;;;;;9.40;100.00;100506.38;5083466;28;20248;-55
2023/01/23 08:11:29;;;;;;;25.17;16.57;;;;;;;9.42;100.00;100499.66;5092405;28;20209;-55
2023/01/23 08:13:55;;;;;;;32.73;16.50;;;;;;;9.49;100.00;100509.28;5081491;28;20192;-55
2023/01/23 08:16:22;;;;;;;22.50;16.07;;;;;;;9.36;100.00;100491.72;5073524;28;20226;-55
2023/01/23 08:18:49;;;;;;;29.80;16.97;;;;;;;9.47;100.00;100516.06;5071723;28;20198;-55
2023/01/23 08:21:16;;;;;;;25.03;16.00;;;;;;;9.57;100.00;100512.13;5071453;28;20184;-55
2023/01/23 08:23:44;;;;;;;25.70;16.13;;;;;;;9.47;100.00;100508.38;5071506;28;20682;-55
2023/01/23 08:26:14;;;;;;;25.90;16.23;;;;;;;9.46;100.00;100516.88;5071162;28;20207;-55
2023/01/23 08:28:41;;;;;;;25.00;15.63;;;;;;;9.47;100.00;100523.75;5068228;28;20664;-55
2023/01/23 08:31:09;;;;;;;26.40;16.03;;;;;;;9.42;100.00;100522.72;5068618;28;20192;-55
2023/01/23 08:33:37;;;;;;;26.07;15.27;;;;;;;9.48;100.00;100518.69;5071280;28;20560;-58
2023/01/23 08:36:06;;;;;;;27.17;16.83;;;;;;;9.49;100.00;100514.44;5070182;28;20215;-56
2023/01/23 08:38:32;;;;;;;29.27;17.90;;;;;;;9.50;100.00;100523.88;5069984;28;20587;-55
2023/01/23 08:41:01;;;;;;;29.07;17.03;;;;;;;9.12;100.00;100491.66;5070361;28;20234;-56
2023/01/23 08:43:30;;;;;;;25.67;17.57;;;;;;;9.26;100.00;100520.38;5069642;28;20188;-55
2023/01/23 08:45:58;;;;;;;22.63;16.00;;;;;;;9.36;100.00;100530.19;5071283;28;20213;-55
2023/01/23 08:48:26;;;;;;;32.03;20.83;;;;;;;9.46;100.00;100527.13;5070101;28;20498;-56
2023/01/23 08:51:00;;;;;;;26.67;17.87;;;;;;;9.50;100.00;100531.56;5071546;28;20198;-55
2023/01/23 08:53:28;;;;;;;33.67;19.33;;;;;;;9.63;100.00;100541.47;5071701;28;20196;-55
2023/01/23 08:55:59;;;;;;;33.47;18.53;;;;;;;9.68;100.00;100541.63;5071740;28;20218;-54
2023/01/23 08:58:26;;;;;;;29.40;17.57;;;;;;;9.63;100.00;100532.88;5071552;28;20209;-55
2023/01/23 09:00:54;;;;;;;27.40;16.87;;;;;;;9.65;100.00;100537.25;5070437;28;20202;-55
2023/01/23 09:03:21;;;;;;;24.10;17.03;;;;;;;9.61;100.00;100535.41;5071670;28;20263;-55
2023/01/23 09:05:48;;;;;;;24.90;17.00;;;;;;;9.57;100.00;100541.22;5069431;28;20188;-55
2023/01/23 09:08:15;;;;;;;30.80;18.77;;;;;;;9.60;100.00;100527.63;5070775;28;20199;-54
2023/01/23 09:10:42;;;;;;;27.40;18.20;;;;;;;9.62;100.00;100531.13;5071256;28;20667;-54
2023/01/23 09:13:09;;;;;;;30.17;17.37;;;;;;;9.58;100.00;100535.28;5071177;28;20191;-54
2023/01/23 09:15:37;;;;;;;26.20;17.37;;;;;;;9.66;100.00;100533.88;5071152;28;20641;-54
2023/01/23 09:18:06;;;;;;;26.53;17.77;;;;;;;9.66;100.00;100518.47;5071251;28;20246;-54
2023/01/23 09:20:33;;;;;;;25.17;15.73;;;;;;;9.69;100.00;100522.84;5069070;28;20195;-55
2023/01/23 09:23:00;;;;;;;30.77;17.37;;;;;;;9.76;100.00;100517.97;5051552;28;20204;-54
2023/01/23 09:25:30;;;;;;;28.90;17.77;;;;;;;9.69;100.00;100512.59;5051019;28;20196;-54
2023/01/23 09:27:56;;;;;;;23.90;16.07;;;;;;;9.71;100.00;100505.81;5051194;28;20726;-54
2023/01/23 09:30:23;;;;;;;26.00;17.67;;;;;;;9.79;100.00;100517.22;5051053;28;20193;-54
2023/01/23 09:32:50;;;;;;;33.07;17.50;;;;;;;9.82;100.00;100504.50;5050722;28;20687;-54
2023/01/23 09:35:18;;;;;;;31.40;16.97;;;;;;;9.87;100.00;100523.50;5051099;28;20730;-54
2023/01/23 09:38:00;;;;;;;23.00;16.47;;;;;;;9.91;100.00;100515.97;5051302;28;20279;-54
2023/01/23 09:40:31;;;;;;;26.67;16.93;;;;;;;9.88;100.00;100521.00;5052012;28;20231;-54
2023/01/23 09:43:02;;;;;;;22.63;16.27;;;;;;;9.99;100.00;100529.06;5051147;28;20200;-54
2023/01/23 09:45:30;;;;;;;27.87;18.17;;;;;;;9.97;100.00;100521.31;5051606;28;20255;-54
2023/01/23 09:48:10;;;;;;;28.60;18.33;;;;;;;9.93;100.00;100518.59;5051042;28;20188;-54
2023/01/23 09:50:43;;;;;;;26.37;17.00;;;;;;;9.94;100.00;100523.75;5054316;28;20248;-54
2023/01/23 09:53:14;;;;;;;25.43;16.10;;;;;;;9.92;100.00;100527.97;5055351;28;20200;-54
2023/01/23 09:55:44;;;;;;;23.07;15.83;;;;;;;9.97;100.00;100525.59;5057583;28;20726;-55
2023/01/23 09:58:20;;;;;;;24.93;15.20;;;;;;;9.23;100.00;100394.66;5075258;28;20230;-54
2023/01/23 10:00:47;;;;;;;25.53;15.90;;;;;;;9.97;100.00;100508.47;5075365;28;20269;-54
2023/01/23 10:03:16;;;;;;;24.73;15.33;;;;;;;9.96;100.00;100511.00;5074480;28;20746;-54
2023/01/23 10:05:56;;;;;;;26.00;16.40;;;;;;;10.11;100.00;100502.94;5074903;28;20201;-55
2023/01/23 10:08:33;;;;;;;23.00;14.23;;;;;;;10.15;99.39;100510.84;5074645;28;20191;-55
2023/01/23 10:11:05;;;;;;;27.63;15.13;;;;;;;10.04;98.61;100510.44;5074542;28;20196;-55
2023/01/23 10:13:53;;;;;;;22.17;15.70;;;;;;;10.07;99.66;100513.13;5074626;28;20194;-55
2023/01/23 10:16:52;;;;;;;23.73;15.00;;;;;;;10.01;99.32;100497.50;5073961;28;20212;-54
2023/01/23 10:19:36;;;;;;;22.30;14.17;;;;;;;10.01;99.27;100499.19;5074287;28;20644;-54
2023/01/23 10:22:24;;;;;;;26.63;16.37;;;;;;;9.99;99.70;100498.25;5073938;28;20602;-54
2023/01/23 10:24:54;;;;;;;22.57;14.03;;;;;;;10.07;99.09;100500.28;5073523;28;20286;-54
2023/01/23 10:27:23;;;;;;;22.07;14.10;;;;;;;9.98;100.00;100501.63;5074311;28;20253;-54
2023/01/23 10:29:56;;;;;;;28.00;15.53;;;;;;;9.99;99.90;100498.25;5074105;28;20199;-54
2023/01/23 10:32:26;;;;;;;26.27;16.03;;;;;;;10.01;100.00;100488.91;5074344;28;20529;-54
2023/01/23 10:34:57;;;;;;;26.63;15.03;;;;;;;9.99;99.88;100501.72;5074782;28;20188;-54
2023/01/23 10:37:39;;;;;;;21.30;14.33;;;;;;;10.00;99.71;100500.88;5073865;28;20226;-54
2023/01/23 10:40:13;;;;;;;23.93;14.53;;;;;;;10.16;99.38;100499.75;5074122;28;20218;-54
2023/01/23 10:42:39;;;;;;;24.17;14.63;;;;;;;10.11;98.44;100497.81;5073901;28;20188;-54
2023/01/23 10:45:14;;;;;;;30.63;14.57;;;;;;;9.88;99.35;100489.31;5073972;28;20261;-54
2023/01/23 10:47:43;;;;;;;20.37;14.20;;;;;;;9.98;99.99;100486.22;5073773;28;20685;-54
2023/01/23 10:50:11;;;;;;;23.27;16.15;;;;;;;9.97;100.00;100489.66;5073862;28;20404;-55
2023/01/23 10:52:42;;;;;;;25.83;16.47;;;;;;;10.12;99.84;100479.88;5071378;28;20196;-54
2023/01/23 10:55:29;;;;;;;26.23;16.57;;;;;;;10.06;99.50;100488.25;5073464;28;20179;-54
2023/01/23 10:58:01;;;;;;;32.67;18.40;;;;;;;10.00;100.00;100479.44;5074130;28;20180;-54
2023/01/23 11:00:35;;;;;;;24.67;16.97;;;;;;;9.95;100.00;100481.00;5073159;28;20199;-54
2023/01/23 11:03:26;;;;;;;30.37;17.37;;;;;;;9.97;100.00;100476.81;5069417;28;20195;-55
2023/01/23 11:05:55;;;;;;;29.10;20.53;;;;;;;10.00;100.00;100490.59;5072210;28;20539;-56
2023/01/23 11:08:26;;;;;;;28.77;19.23;;;;;;;10.12;99.73;100479.88;5072525;28;20190;-56
2023/01/23 11:10:53;;;;;;;22.80;17.43;;;;;;;10.21;99.04;100485.38;5072811;28;20199;-55
2023/01/23 11:13:28;;;;;;;33.83;18.37;;;;;;;10.15;98.88;100489.41;5073491;28;20187;-56
2023/01/23 11:15:55;;;;;;;28.10;18.73;;;;;;;10.11;99.40;100488.38;5073029;28;20214;-54
2023/01/23 11:18:32;;;;;;;29.97;18.20;;;;;;;10.05;98.28;100493.34;5078068;28;20199;-54
2023/01/23 11:20:59;;;;;;;26.73;17.90;;;;;;;9.86;98.31;100478.97;5053287;28;20196;-53